createdAt,value
2023-05-15T00:00:49.182Z,73.21
2023-05-15T00:04:03.655Z,73.22
2023-05-15T00:07:05.518Z,73.32
2023-05-15T00:10:08.156Z,73.17
2023-05-15T00:13:09.988Z,73.27
2023-05-15T00:16:12.109Z,73.39
2023-05-15T00:19:14.183Z,73.44
2023-05-15T00:22:15.996Z,73.16
2023-05-15T00:25:18.901Z,73.10
2023-05-15T00:28:20.551Z,73.19
2023-05-15T00:31:22.271Z,73.19
2023-05-15T00:34:24.284Z,73.15
2023-05-15T00:37:25.919Z,73.20
2023-05-15T00:40:28.867Z,73.21
2023-05-15T00:43:30.649Z,73.14
2023-05-15T00:46:35.059Z,73.23
2023-05-15T00:49:37.436Z,73.33
2023-05-15T00:52:39.205Z,73.41
2023-05-15T00:55:41.956Z,73.32
2023-05-15T00:58:45.758Z,73.33
2023-05-15T01:01:47.661Z,73.39
2023-05-15T01:04:49.461Z,73.38
2023-05-15T01:08:22.895Z,73.40
2023-05-15T01:11:35.227Z,73.37
2023-05-15T01:14:38.912Z,73.40
2023-05-15T01:17:41.543Z,73.48
2023-05-15T01:20:51.424Z,73.53
2023-05-15T01:24:22.054Z,73.67
2023-05-15T01:27:49.806Z,73.74
2023-05-15T01:30:54.791Z,73.85
2023-05-15T01:34:02.247Z,73.85
2023-05-15T01:37:06.745Z,73.77
2023-05-15T01:40:11.302Z,73.84
2023-05-15T01:43:21.406Z,73.84
2023-05-15T01:46:25.856Z,73.76
2023-05-15T01:49:30.152Z,73.82
2023-05-15T01:52:38.213Z,73.93
2023-05-15T01:55:41.528Z,73.83
2023-05-15T01:58:43.879Z,74.10
2023-05-15T02:01:46.159Z,74.20
2023-05-15T02:04:48.951Z,74.40
2023-05-15T02:07:51.261Z,74.23
2023-05-15T02:10:53.242Z,74.28
2023-05-15T02:13:57.005Z,74.19
2023-05-15T02:16:58.720Z,74.25
2023-05-15T02:20:04.531Z,74.39
2023-05-15T02:23:06.241Z,74.52
2023-05-15T02:26:29.122Z,74.44
2023-05-15T02:29:36.670Z,74.46
2023-05-15T02:32:47.732Z,74.48
2023-05-15T02:35:56.366Z,74.41
2023-05-15T02:38:58.717Z,74.40
2023-05-15T02:42:00.894Z,74.45
2023-05-15T02:45:03.084Z,74.35
2023-05-15T02:48:06.102Z,74.44
2023-05-15T02:51:07.956Z,74.50
2023-05-15T02:54:09.822Z,74.54
2023-05-15T02:57:11.521Z,74.53
2023-05-15T03:00:15.482Z,74.61
2023-05-15T03:03:17.187Z,74.76
2023-05-15T03:06:18.869Z,74.80
2023-05-15T03:09:20.869Z,74.89
2023-05-15T03:12:22.557Z,74.92
2023-05-15T03:15:24.766Z,74.96
2023-05-15T03:18:26.546Z,75.07
2023-05-15T03:21:28.353Z,74.84
2023-05-15T03:24:30.074Z,74.83
2023-05-15T03:27:31.762Z,75.10
2023-05-15T03:30:33.518Z,75.25
2023-05-15T03:33:35.184Z,75.24
2023-05-15T03:36:36.848Z,75.30
2023-05-15T03:39:39.869Z,75.39
2023-05-15T03:42:41.612Z,75.41
2023-05-15T03:45:43.548Z,75.35
2023-05-15T03:48:45.212Z,75.55
2023-05-15T03:51:46.989Z,75.56
2023-05-15T03:54:49.861Z,75.63
2023-05-15T03:57:53.244Z,75.67
2023-05-15T04:00:55.030Z,75.76
2023-05-15T04:03:56.706Z,75.78
2023-05-15T04:06:58.642Z,75.82
2023-05-15T04:10:00.975Z,75.82
2023-05-15T04:13:02.702Z,75.94
2023-05-15T04:16:04.884Z,75.71
2023-05-15T04:19:06.741Z,75.73
2023-05-15T04:22:08.456Z,75.70
2023-05-15T04:25:11.081Z,75.93
2023-05-15T04:28:13.395Z,75.99
2023-05-15T04:31:15.296Z,76.14
2023-05-15T04:34:16.912Z,75.89
2023-05-15T04:37:18.653Z,75.99
2023-05-15T04:40:20.582Z,76.22
2023-05-15T04:43:22.290Z,76.30
2023-05-15T04:46:24.020Z,76.50
2023-05-15T04:49:25.840Z,76.55
2023-05-15T04:52:27.576Z,76.58
2023-05-15T04:55:30.109Z,76.51
2023-05-15T04:58:32.910Z,76.62
2023-05-15T05:01:34.682Z,76.62
2023-05-15T05:04:36.406Z,76.63
2023-05-15T05:07:38.054Z,76.78
2023-05-15T05:10:39.766Z,76.95
2023-05-15T05:13:41.994Z,76.94
2023-05-15T05:16:46.416Z,76.96
2023-05-15T05:19:48.132Z,76.78
2023-05-15T05:22:49.977Z,76.78
2023-05-15T05:25:51.628Z,76.76
2023-05-15T05:28:53.878Z,76.91
2023-05-15T05:31:55.915Z,76.96
2023-05-15T05:34:57.710Z,76.84
2023-05-15T05:38:00.434Z,76.79
2023-05-15T05:41:02.902Z,76.90
2023-05-15T05:44:04.698Z,77.01
2023-05-15T05:47:06.424Z,77.06
2023-05-15T05:50:08.374Z,77.22
2023-05-15T05:53:10.300Z,77.27
2023-05-15T05:56:12.119Z,77.23
2023-05-15T05:59:14.172Z,77.21
2023-05-15T06:02:16.022Z,77.26
2023-05-15T06:05:17.878Z,77.23
2023-05-15T06:08:20.129Z,77.34
2023-05-15T06:11:22.774Z,77.42
2023-05-15T06:14:26.223Z,77.26
2023-05-15T06:17:27.870Z,77.24
2023-05-15T06:20:29.921Z,77.32
2023-05-15T06:23:31.660Z,77.28
2023-05-15T06:26:33.540Z,77.29
2023-05-15T06:29:35.242Z,77.38
2023-05-15T06:32:36.968Z,77.41
2023-05-15T06:35:38.717Z,77.41
2023-05-15T06:38:40.363Z,77.49
2023-05-15T06:41:42.047Z,77.64
2023-05-15T06:44:44.280Z,77.82
2023-05-15T06:47:46.100Z,77.67
2023-05-15T06:50:47.875Z,77.66
2023-05-15T06:53:49.602Z,77.63
2023-05-15T06:56:51.337Z,77.79
2023-05-15T06:59:53.198Z,78.14
2023-05-15T07:02:54.977Z,78.27
2023-05-15T07:05:56.866Z,78.30
2023-05-15T07:08:58.995Z,78.32
2023-05-15T07:12:00.853Z,78.21
2023-05-15T07:15:03.056Z,78.17
2023-05-15T07:18:06.033Z,78.25
2023-05-15T07:21:07.905Z,78.46
2023-05-15T07:24:09.735Z,78.62
2023-05-15T07:27:11.460Z,78.63
2023-05-15T07:30:13.647Z,78.58
2023-05-15T07:33:15.920Z,78.62
2023-05-15T07:36:18.203Z,78.52
2023-05-15T07:39:20.023Z,78.37
2023-05-15T07:42:21.904Z,78.22
2023-05-15T07:45:24.319Z,78.18
2023-05-15T07:48:26.325Z,78.16
2023-05-15T07:51:28.289Z,78.06
2023-05-15T07:54:31.515Z,77.89
2023-05-15T07:57:36.610Z,77.92
2023-05-15T08:00:42.126Z,77.98
2023-05-15T08:03:43.996Z,77.88
2023-05-15T08:06:45.875Z,77.84
2023-05-15T08:09:47.615Z,77.70
2023-05-15T08:12:50.028Z,77.62
2023-05-15T08:15:51.893Z,77.50
2023-05-15T08:18:57.871Z,77.45
2023-05-15T08:21:59.636Z,77.62
2023-05-15T08:25:03.426Z,77.40
2023-05-15T08:28:05.459Z,77.29
2023-05-15T08:31:07.355Z,77.36
2023-05-15T08:34:09.102Z,77.42
2023-05-15T08:37:10.889Z,77.47
2023-05-15T08:40:12.858Z,77.50
2023-05-15T08:43:17.009Z,77.58
2023-05-15T08:46:19.137Z,77.57
2023-05-15T08:49:31.770Z,77.58
2023-05-15T08:52:34.052Z,77.71
2023-05-15T08:55:35.859Z,77.75
2023-05-15T08:58:37.666Z,77.66
2023-05-15T09:01:39.532Z,77.62
2023-05-15T09:04:41.543Z,77.66
2023-05-15T09:07:45.738Z,77.70
2023-05-15T09:10:49.372Z,77.84
2023-05-15T09:13:51.191Z,77.92
2023-05-15T09:16:53.150Z,77.96
2023-05-15T09:19:55.525Z,78.07
2023-05-15T09:22:59.184Z,77.99
2023-05-15T09:26:01.580Z,77.95
2023-05-15T09:29:04.228Z,77.76
2023-05-15T09:32:07.111Z,77.67
2023-05-15T09:35:47.326Z,77.51
2023-05-15T09:38:49.258Z,77.51
2023-05-15T09:41:52.003Z,77.54
2023-05-15T09:44:53.760Z,77.72
2023-05-15T09:47:58.945Z,77.81
2023-05-15T09:51:01.575Z,77.94
2023-05-15T09:54:03.562Z,78.07
2023-05-15T09:57:12.688Z,77.84
2023-05-15T10:00:19.411Z,77.61
2023-05-15T10:03:21.488Z,77.68
2023-05-15T10:06:23.356Z,77.65
2023-05-15T10:09:31.508Z,77.56
2023-05-15T10:12:35.965Z,77.48
2023-05-15T10:15:39.042Z,77.51
2023-05-15T10:18:44.005Z,77.57
2023-05-15T10:21:47.605Z,77.68
2023-05-15T10:24:57.306Z,77.72
2023-05-15T10:28:00.406Z,77.80
2023-05-15T10:31:02.713Z,78.00
2023-05-15T10:34:06.214Z,78.36
2023-05-15T10:37:08.895Z,77.83
2023-05-15T10:40:12.533Z,77.74
2023-05-15T10:43:14.862Z,77.52
2023-05-15T10:46:16.764Z,77.49
2023-05-15T10:49:19.051Z,77.41
2023-05-15T10:52:20.950Z,76.52
2023-05-15T10:55:23.159Z,76.53
2023-05-15T10:58:24.982Z,76.10
2023-05-15T11:01:32.445Z,76.15
2023-05-15T11:04:34.510Z,76.17
2023-05-15T11:07:36.636Z,75.81
2023-05-15T11:10:38.912Z,75.56
2023-05-15T11:14:02.065Z,75.41
2023-05-15T11:17:11.271Z,75.24
2023-05-15T11:20:13.218Z,75.11
2023-05-15T11:23:15.486Z,75.11
2023-05-15T11:26:31.556Z,75.41
2023-05-15T11:29:34.536Z,75.50
2023-05-15T11:32:52.707Z,75.71
2023-05-15T11:36:01.407Z,76.32
2023-05-15T11:39:10.798Z,75.77
2023-05-15T11:42:13.101Z,75.91
2023-05-15T11:45:14.782Z,75.62
2023-05-15T11:48:17.651Z,75.58
2023-05-15T11:51:21.675Z,75.08
2023-05-15T11:54:24.002Z,75.08
2023-05-15T11:57:25.715Z,75.01
2023-05-15T12:00:27.781Z,75.03
2023-05-15T12:03:33.886Z,75.18
2023-05-15T12:06:35.949Z,75.27
2023-05-15T12:09:38.781Z,75.95
2023-05-15T12:12:42.376Z,74.60
2023-05-15T12:15:45.925Z,73.90
2023-05-15T12:18:49.252Z,73.36
2023-05-15T12:21:51.093Z,72.60
2023-05-15T12:24:52.889Z,71.92
2023-05-15T12:27:55.129Z,71.05
2023-05-15T12:30:57.201Z,70.84
2023-05-15T12:33:59.546Z,71.26
2023-05-15T12:37:02.026Z,71.32
2023-05-15T12:40:09.733Z,71.64
2023-05-15T12:43:12.841Z,71.73
2023-05-15T12:46:14.941Z,72.58
2023-05-15T12:49:22.790Z,71.82
2023-05-15T12:52:28.721Z,71.80
2023-05-15T12:55:34.514Z,70.48
2023-05-15T12:58:38.082Z,69.78
2023-05-15T13:01:41.610Z,69.64
2023-05-15T13:04:46.487Z,69.48
2023-05-15T13:07:48.584Z,69.97
2023-05-15T13:10:57.124Z,69.96
2023-05-15T13:13:58.934Z,69.95
2023-05-15T13:17:04.255Z,69.27
2023-05-15T13:20:07.091Z,69.35
2023-05-15T13:23:10.874Z,69.35
2023-05-15T13:26:13.004Z,69.66
2023-05-15T13:29:15.153Z,69.31
2023-05-15T13:32:17.256Z,69.47
2023-05-15T13:35:19.275Z,69.56
2023-05-15T13:38:21.294Z,69.67
2023-05-15T13:41:23.043Z,69.50
2023-05-15T13:44:24.846Z,69.05
2023-05-15T13:47:26.647Z,69.43
2023-05-15T13:50:28.600Z,69.52
2023-05-15T13:53:30.532Z,69.48
2023-05-15T13:56:32.331Z,68.97
2023-05-15T13:59:34.083Z,68.18
2023-05-15T14:02:36.012Z,67.56
2023-05-15T14:05:37.932Z,67.40
2023-05-15T14:08:39.703Z,66.81
2023-05-15T14:11:41.416Z,66.23
2023-05-15T14:14:46.486Z,66.36
2023-05-15T14:17:48.984Z,66.14
2023-05-15T14:20:51.725Z,66.00
2023-05-15T14:23:53.440Z,66.29
2023-05-15T14:26:55.159Z,66.02
2023-05-15T14:29:57.052Z,66.01
2023-05-15T14:32:58.975Z,65.94
2023-05-15T14:36:01.037Z,65.19
2023-05-15T14:39:03.703Z,64.56
2023-05-15T14:42:05.944Z,64.79
2023-05-15T14:45:07.866Z,64.94
2023-05-15T14:48:11.195Z,65.17
2023-05-15T14:51:13.044Z,64.09
2023-05-15T14:54:14.855Z,63.96
2023-05-15T14:57:19.702Z,64.10
2023-05-15T15:00:21.500Z,64.26
2023-05-15T15:03:24.543Z,64.24
2023-05-15T15:06:27.454Z,64.80
2023-05-15T15:09:29.970Z,65.48
2023-05-15T15:12:31.738Z,64.73
2023-05-15T15:15:34.524Z,64.43
2023-05-15T15:18:36.372Z,64.68
2023-05-15T15:21:38.247Z,64.64
2023-05-15T15:24:40.051Z,64.41
2023-05-15T15:27:41.929Z,64.77
2023-05-15T15:30:43.737Z,65.09
2023-05-15T15:33:45.463Z,64.88
2023-05-15T15:36:47.469Z,65.26
2023-05-15T15:39:49.448Z,65.40
2023-05-15T15:42:51.244Z,65.86
2023-05-15T15:45:53.872Z,66.07
2023-05-15T15:48:55.695Z,65.39
2023-05-15T15:51:57.602Z,65.20
2023-05-15T15:55:02.374Z,64.81
2023-05-15T15:58:04.111Z,64.74
2023-05-15T16:01:05.959Z,64.68
2023-05-15T16:04:08.117Z,65.25
2023-05-15T16:07:09.917Z,65.14
2023-05-15T16:10:13.169Z,65.24
2023-05-15T16:13:15.455Z,65.06
2023-05-15T16:16:17.356Z,65.35
2023-05-15T16:19:19.219Z,65.30
2023-05-15T16:22:21.904Z,65.04
2023-05-15T16:25:23.638Z,65.12
2023-05-15T16:28:25.584Z,65.66
2023-05-15T16:31:27.390Z,66.12
2023-05-15T16:34:29.152Z,66.38
2023-05-15T16:37:30.887Z,66.92
2023-05-15T16:40:32.654Z,67.17
2023-05-15T16:43:35.026Z,67.53
2023-05-15T16:46:37.489Z,67.63
2023-05-15T16:49:40.063Z,67.78
2023-05-15T16:52:46.616Z,68.25
2023-05-15T16:55:48.683Z,68.45
2023-05-15T16:58:52.362Z,68.67
2023-05-15T17:01:54.056Z,68.86
2023-05-15T17:04:57.278Z,68.48
2023-05-15T17:08:00.124Z,68.55
2023-05-15T17:11:02.585Z,68.74
2023-05-15T17:14:04.334Z,68.68
2023-05-15T17:17:05.997Z,68.54
2023-05-15T17:20:08.652Z,68.08
2023-05-15T17:23:10.316Z,68.09
2023-05-15T17:26:12.077Z,68.20
2023-05-15T17:29:14.352Z,68.30
2023-05-15T17:32:16.100Z,68.69
2023-05-15T17:35:18.522Z,68.59
2023-05-15T17:38:20.209Z,68.76
2023-05-15T17:41:21.949Z,68.89
2023-05-15T17:44:29.199Z,69.05
2023-05-15T17:47:31.038Z,69.43
2023-05-15T17:50:37.814Z,69.70
2023-05-15T17:53:39.668Z,70.02
2023-05-15T17:56:41.946Z,70.21
2023-05-15T17:59:43.636Z,70.41
2023-05-15T18:02:45.367Z,70.24
2023-05-15T18:05:47.548Z,70.70
2023-05-15T18:08:50.757Z,70.90
2023-05-15T18:11:52.506Z,71.04
2023-05-15T18:14:54.363Z,71.24
2023-05-15T18:17:56.847Z,71.32
2023-05-15T18:20:58.810Z,71.50
2023-05-15T18:24:00.516Z,71.69
2023-05-15T18:27:03.192Z,71.80
2023-05-15T18:30:05.574Z,72.02
2023-05-15T18:33:07.799Z,72.19
2023-05-15T18:36:09.689Z,72.28
2023-05-15T18:39:12.007Z,72.03
2023-05-15T18:42:14.190Z,72.18
2023-05-15T18:45:15.947Z,72.32
2023-05-15T18:48:17.642Z,72.44
2023-05-15T18:51:19.291Z,72.54
2023-05-15T18:54:20.985Z,72.75
2023-05-15T18:57:22.664Z,72.85
2023-05-15T19:00:37.321Z,72.91
2023-05-15T19:03:40.946Z,72.96
2023-05-15T19:06:43.203Z,72.91
2023-05-15T19:09:44.792Z,72.87
2023-05-15T19:12:46.517Z,72.70
2023-05-15T19:15:52.048Z,72.81
2023-05-15T19:18:54.920Z,73.01
2023-05-15T19:21:56.772Z,73.09
2023-05-15T19:24:58.707Z,72.99
2023-05-15T19:28:00.805Z,72.90
2023-05-15T19:31:03.791Z,72.88
2023-05-15T19:34:05.600Z,72.74
2023-05-15T19:37:07.863Z,72.85
2023-05-15T19:40:09.988Z,72.96
2023-05-15T19:43:13.450Z,72.96
2023-05-15T19:46:16.354Z,72.82
2023-05-15T19:49:18.989Z,72.84
2023-05-15T19:52:20.690Z,72.91
2023-05-15T19:55:22.512Z,72.93
2023-05-15T19:58:24.237Z,73.02
2023-05-15T20:01:26.121Z,73.09
2023-05-15T20:04:28.345Z,73.17
2023-05-15T20:07:30.208Z,73.27
2023-05-15T20:10:31.985Z,73.37
2023-05-15T20:13:33.939Z,73.36
2023-05-15T20:16:36.191Z,73.38
2023-05-15T20:19:38.865Z,73.41
2023-05-15T20:22:45.332Z,73.56
2023-05-15T20:25:48.061Z,73.59
2023-05-15T20:28:49.761Z,73.63
2023-05-15T20:31:51.743Z,73.62
2023-05-15T20:34:55.345Z,73.65
2023-05-15T20:37:56.961Z,73.60
2023-05-15T20:40:59.406Z,73.44
2023-05-15T20:44:01.344Z,73.25
2023-05-15T20:47:03.327Z,73.18
2023-05-15T20:50:05.747Z,73.09
2023-05-15T20:53:08.244Z,73.08
2023-05-15T20:56:09.952Z,73.01
2023-05-15T20:59:12.004Z,72.89
2023-05-15T21:02:13.677Z,72.87
2023-05-15T21:05:15.482Z,72.94
2023-05-15T21:08:17.352Z,73.10
2023-05-15T21:11:19.427Z,73.21
2023-05-15T21:14:21.133Z,73.31
2023-05-15T21:17:22.846Z,73.29
2023-05-15T21:20:26.139Z,73.31
2023-05-15T21:23:28.145Z,73.36
2023-05-15T21:26:30.430Z,73.27
2023-05-15T21:29:32.137Z,73.13
2023-05-15T21:32:33.935Z,73.01
2023-05-15T21:35:35.671Z,72.95
2023-05-15T21:38:37.592Z,72.99
2023-05-15T21:41:39.312Z,73.01
2023-05-15T21:44:41.069Z,72.98
2023-05-15T21:47:42.804Z,73.00
2023-05-15T21:50:44.508Z,72.98
2023-05-15T21:53:46.191Z,72.91
2023-05-15T21:56:47.988Z,72.87
2023-05-15T21:59:49.772Z,72.71
2023-05-15T22:02:51.547Z,72.70
2023-05-15T22:05:53.356Z,72.69
2023-05-15T22:08:55.195Z,72.72
2023-05-15T22:11:56.863Z,72.73
2023-05-15T22:14:59.884Z,72.82
2023-05-15T22:18:02.873Z,72.83
2023-05-15T22:21:04.712Z,72.82
2023-05-15T22:24:06.616Z,72.88
2023-05-15T22:27:08.410Z,72.76
2023-05-15T22:30:10.510Z,72.72
2023-05-15T22:33:12.293Z,72.69
2023-05-15T22:36:14.772Z,72.63
2023-05-15T22:39:16.328Z,72.61
2023-05-15T22:42:18.689Z,72.58
2023-05-15T22:45:20.535Z,72.60
2023-05-15T22:48:22.616Z,72.41
2023-05-15T22:51:24.291Z,72.34
2023-05-15T22:54:26.084Z,72.31
2023-05-15T22:57:28.361Z,72.27
2023-05-15T23:00:30.615Z,72.29
2023-05-15T23:03:32.876Z,72.28
2023-05-15T23:06:34.892Z,72.19
2023-05-15T23:09:36.615Z,72.19
2023-05-15T23:12:39.088Z,72.27
2023-05-15T23:15:40.899Z,72.33
2023-05-15T23:18:42.852Z,72.29
2023-05-15T23:21:44.556Z,72.27
2023-05-15T23:24:46.230Z,72.28
2023-05-15T23:27:49.090Z,72.30
2023-05-15T23:30:54.236Z,72.28
2023-05-15T23:33:56.006Z,72.17
2023-05-15T23:36:57.658Z,72.20
2023-05-15T23:39:59.433Z,72.22
2023-05-15T23:43:01.066Z,72.23
2023-05-15T23:46:02.818Z,72.20
2023-05-15T23:49:04.515Z,72.21
2023-05-15T23:52:06.500Z,72.30
2023-05-15T23:55:08.575Z,72.27
2023-05-15T23:58:10.200Z,72.31
